sensor_id;sensor_type;location;lat;lon;timestamp;temperature;humidity
65460;DHT22;52058;49.822;6.754;2023-05-10T00:00:45;13.37;99.31
65460;DHT22;52058;49.822;6.754;2023-05-10T00:03:12;13.37;99.39
65460;DHT22;52058;49.822;6.754;2023-05-10T00:05:39;13.35;99.59
65460;DHT22;52058;49.822;6.754;2023-05-10T00:08:05;13.28;99.73
65460;DHT22;52058;49.822;6.754;2023-05-10T00:10:32;13.27;99.99
65460;DHT22;52058;49.822;6.754;2023-05-10T00:12:58;13.25;99.77
65460;DHT22;52058;49.822;6.754;2023-05-10T00:15:26;13.27;99.49
65460;DHT22;52058;49.822;6.754;2023-05-10T00:17:53;13.24;99.93
65460;DHT22;52058;49.822;6.754;2023-05-10T00:20:19;13.24;99.99
65460;DHT22;52058;49.822;6.754;2023-05-10T00:22:46;13.24;99.72
65460;DHT22;52058;49.822;6.754;2023-05-10T00:25:12;13.20;99.99
65460;DHT22;52058;49.822;6.754;2023-05-10T00:27:39;13.15;99.85
65460;DHT22;52058;49.822;6.754;2023-05-10T00:30:06;13.13;99.99
65460;DHT22;52058;49.822;6.754;2023-05-10T00:32:34;13.08;99.81
65460;DHT22;52058;49.822;6.754;2023-05-10T00:35:01;13.10;99.99
65460;DHT22;52058;49.822;6.754;2023-05-10T00:37:27;13.07;99.99
65460;DHT22;52058;49.822;6.754;2023-05-10T00:39:54;13.07;99.99
65460;DHT22;52058;49.822;6.754;2023-05-10T00:42:21;13.02;99.99
65460;DHT22;52058;49.822;6.754;2023-05-10T00:44:48;12.87;99.99
65460;DHT22;52058;49.822;6.754;2023-05-10T00:47:15;12.76;99.99
65460;DHT22;52058;49.822;6.754;2023-05-10T00:49:43;12.65;99.99
65460;DHT22;52058;49.822;6.754;2023-05-10T00:52:10;12.60;99.99
65460;DHT22;52058;49.822;6.754;2023-05-10T00:54:37;12.52;99.99
65460;DHT22;52058;49.822;6.754;2023-05-10T00:57:04;12.49;99.99
65460;DHT22;52058;49.822;6.754;2023-05-10T00:59:30;12.39;99.99
65460;DHT22;52058;49.822;6.754;2023-05-10T01:01:57;12.26;99.99
65460;DHT22;52058;49.822;6.754;2023-05-10T01:04:24;12.22;99.99
65460;DHT22;52058;49.822;6.754;2023-05-10T01:06:53;12.15;99.99
65460;DHT22;52058;49.822;6.754;2023-05-10T01:09:20;12.13;99.99
65460;DHT22;52058;49.822;6.754;2023-05-10T01:11:47;12.10;99.99
65460;DHT22;52058;49.822;6.754;2023-05-10T01:14:15;12.10;99.99
65460;DHT22;52058;49.822;6.754;2023-05-10T01:16:44;12.11;99.99
65460;DHT22;52058;49.822;6.754;2023-05-10T01:19:18;12.17;99.99
65460;DHT22;52058;49.822;6.754;2023-05-10T01:21:49;12.25;99.99
65460;DHT22;52058;49.822;6.754;2023-05-10T01:24:48;12.31;99.99
65460;DHT22;52058;49.822;6.754;2023-05-10T01:27:41;12.34;99.99
65460;DHT22;52058;49.822;6.754;2023-05-10T01:30:27;12.39;99.99
65460;DHT22;52058;49.822;6.754;2023-05-10T01:33:00;12.44;99.99
65460;DHT22;52058;49.822;6.754;2023-05-10T01:35:32;12.45;99.99
65460;DHT22;52058;49.822;6.754;2023-05-10T01:38:05;12.48;99.99
65460;DHT22;52058;49.822;6.754;2023-05-10T01:40:37;12.52;99.99
65460;DHT22;52058;49.822;6.754;2023-05-10T01:43:12;12.59;99.99
65460;DHT22;52058;49.822;6.754;2023-05-10T01:45:45;12.59;99.99
65460;DHT22;52058;49.822;6.754;2023-05-10T01:48:15;12.63;99.99
65460;DHT22;52058;49.822;6.754;2023-05-10T01:50:43;12.66;99.99
65460;DHT22;52058;49.822;6.754;2023-05-10T01:53:12;12.70;99.99
65460;DHT22;52058;49.822;6.754;2023-05-10T01:55:43;12.75;99.99
65460;DHT22;52058;49.822;6.754;2023-05-10T01:58:13;12.75;99.85
65460;DHT22;52058;49.822;6.754;2023-05-10T02:00:43;12.76;99.99
65460;DHT22;52058;49.822;6.754;2023-05-10T02:03:10;12.75;99.99
65460;DHT22;52058;49.822;6.754;2023-05-10T02:05:41;12.73;99.99
65460;DHT22;52058;49.822;6.754;2023-05-10T02:08:09;12.80;99.99
65460;DHT22;52058;49.822;6.754;2023-05-10T02:10:36;12.79;99.99
65460;DHT22;52058;49.822;6.754;2023-05-10T02:13:03;12.83;99.99
65460;DHT22;52058;49.822;6.754;2023-05-10T02:15:32;12.83;99.99
65460;DHT22;52058;49.822;6.754;2023-05-10T02:18:00;12.80;99.99
65460;DHT22;52058;49.822;6.754;2023-05-10T02:20:27;12.82;99.99
65460;DHT22;52058;49.822;6.754;2023-05-10T02:22:55;12.84;99.99
65460;DHT22;52058;49.822;6.754;2023-05-10T02:25:24;12.84;99.93
65460;DHT22;52058;49.822;6.754;2023-05-10T02:27:54;12.89;99.99
65460;DHT22;52058;49.822;6.754;2023-05-10T02:30:22;12.86;99.99
65460;DHT22;52058;49.822;6.754;2023-05-10T02:32:50;12.84;99.99
65460;DHT22;52058;49.822;6.754;2023-05-10T02:35:18;12.89;99.99
65460;DHT22;52058;49.822;6.754;2023-05-10T02:37:45;12.90;99.99
65460;DHT22;52058;49.822;6.754;2023-05-10T02:40:15;12.92;99.99
65460;DHT22;52058;49.822;6.754;2023-05-10T02:42:43;12.93;99.99
65460;DHT22;52058;49.822;6.754;2023-05-10T02:45:12;12.93;99.80
65460;DHT22;52058;49.822;6.754;2023-05-10T02:47:39;12.93;99.93
65460;DHT22;52058;49.822;6.754;2023-05-10T02:50:07;12.86;99.76
65460;DHT22;52058;49.822;6.754;2023-05-10T02:52:39;12.86;99.99
65460;DHT22;52058;49.822;6.754;2023-05-10T02:55:09;12.80;99.99
65460;DHT22;52058;49.822;6.754;2023-05-10T02:57:41;12.79;99.99
65460;DHT22;52058;49.822;6.754;2023-05-10T03:00:08;12.76;99.99
65460;DHT22;52058;49.822;6.754;2023-05-10T03:02:35;12.76;99.99
65460;DHT22;52058;49.822;6.754;2023-05-10T03:05:02;12.79;99.99
65460;DHT22;52058;49.822;6.754;2023-05-10T03:07:29;12.82;99.72
65460;DHT22;52058;49.822;6.754;2023-05-10T03:09:56;12.79;99.78
65460;DHT22;52058;49.822;6.754;2023-05-10T03:12:29;12.80;99.74
65460;DHT22;52058;49.822;6.754;2023-05-10T03:15:04;12.80;99.58
65460;DHT22;52058;49.822;6.754;2023-05-10T03:17:43;12.73;99.65
65460;DHT22;52058;49.822;6.754;2023-05-10T03:20:16;12.66;99.89
65460;DHT22;52058;49.822;6.754;2023-05-10T03:22:50;12.63;99.99
65460;DHT22;52058;49.822;6.754;2023-05-10T03:25:18;12.60;99.99
65460;DHT22;52058;49.822;6.754;2023-05-10T03:27:47;12.56;99.99
65460;DHT22;52058;49.822;6.754;2023-05-10T03:30:15;12.52;99.99
65460;DHT22;52058;49.822;6.754;2023-05-10T03:32:42;12.52;99.99
65460;DHT22;52058;49.822;6.754;2023-05-10T03:35:10;12.50;99.99
65460;DHT22;52058;49.822;6.754;2023-05-10T03:37:37;12.55;99.99
65460;DHT22;52058;49.822;6.754;2023-05-10T03:40:04;12.53;99.99
65460;DHT22;52058;49.822;6.754;2023-05-10T03:42:31;12.57;99.99
65460;DHT22;52058;49.822;6.754;2023-05-10T03:44:57;12.65;99.99
65460;DHT22;52058;49.822;6.754;2023-05-10T03:47:25;12.69;99.99
65460;DHT22;52058;49.822;6.754;2023-05-10T03:49:52;12.69;99.99
65460;DHT22;52058;49.822;6.754;2023-05-10T03:52:18;12.72;99.99
65460;DHT22;52058;49.822;6.754;2023-05-10T03:54:45;12.73;99.99
65460;DHT22;52058;49.822;6.754;2023-05-10T03:57:11;12.75;99.99
65460;DHT22;52058;49.822;6.754;2023-05-10T03:59:38;12.76;99.99
65460;DHT22;52058;49.822;6.754;2023-05-10T04:02:05;12.77;99.99
65460;DHT22;52058;49.822;6.754;2023-05-10T04:04:32;12.75;99.99
65460;DHT22;52058;49.822;6.754;2023-05-10T04:06:59;12.75;99.99
65460;DHT22;52058;49.822;6.754;2023-05-10T04:09:25;12.75;99.99
65460;DHT22;52058;49.822;6.754;2023-05-10T04:11:52;12.76;99.99
65460;DHT22;52058;49.822;6.754;2023-05-10T04:14:18;12.75;99.99
65460;DHT22;52058;49.822;6.754;2023-05-10T04:16:45;12.75;99.99
65460;DHT22;52058;49.822;6.754;2023-05-10T04:19:11;12.79;99.99
65460;DHT22;52058;49.822;6.754;2023-05-10T04:21:39;12.80;99.99
65460;DHT22;52058;49.822;6.754;2023-05-10T04:24:06;12.76;99.99
65460;DHT22;52058;49.822;6.754;2023-05-10T04:26:32;12.80;99.99
65460;DHT22;52058;49.822;6.754;2023-05-10T04:28:59;12.87;99.99
65460;DHT22;52058;49.822;6.754;2023-05-10T04:31:25;12.92;99.99
65460;DHT22;52058;49.822;6.754;2023-05-10T04:33:53;12.97;99.99
65460;DHT22;52058;49.822;6.754;2023-05-10T04:36:19;12.92;99.99
65460;DHT22;52058;49.822;6.754;2023-05-10T04:38:47;13.02;99.98
65460;DHT22;52058;49.822;6.754;2023-05-10T04:41:13;13.08;99.99
65460;DHT22;52058;49.822;6.754;2023-05-10T04:43:40;13.15;99.69
65460;DHT22;52058;49.822;6.754;2023-05-10T04:46:07;13.23;99.55
65460;DHT22;52058;49.822;6.754;2023-05-10T04:48:33;13.24;99.65
65460;DHT22;52058;49.822;6.754;2023-05-10T04:51:00;13.30;99.63
65460;DHT22;52058;49.822;6.754;2023-05-10T04:53:26;13.35;99.64
65460;DHT22;52058;49.822;6.754;2023-05-10T04:55:54;13.37;99.28
65460;DHT22;52058;49.822;6.754;2023-05-10T04:58:21;13.38;99.29
65460;DHT22;52058;49.822;6.754;2023-05-10T05:00:47;13.40;99.39
65460;DHT22;52058;49.822;6.754;2023-05-10T05:03:14;13.45;99.12
65460;DHT22;52058;49.822;6.754;2023-05-10T05:05:40;13.57;98.50
65460;DHT22;52058;49.822;6.754;2023-05-10T05:08:07;13.45;98.00
65460;DHT22;52058;49.822;6.754;2023-05-10T05:10:33;13.44;98.39
65460;DHT22;52058;49.822;6.754;2023-05-10T05:13:01;13.47;97.93
65460;DHT22;52058;49.822;6.754;2023-05-10T05:15:28;13.52;97.85
65460;DHT22;52058;49.822;6.754;2023-05-10T05:17:55;13.52;98.01
65460;DHT22;52058;49.822;6.754;2023-05-10T05:20:22;13.58;97.74
65460;DHT22;52058;49.822;6.754;2023-05-10T05:22:48;13.52;97.80
65460;DHT22;52058;49.822;6.754;2023-05-10T05:25:15;13.57;97.50
65460;DHT22;52058;49.822;6.754;2023-05-10T05:27:42;13.59;97.47
65460;DHT22;52058;49.822;6.754;2023-05-10T05:30:10;13.68;96.90
65460;DHT22;52058;49.822;6.754;2023-05-10T05:32:37;13.71;96.65
65460;DHT22;52058;49.822;6.754;2023-05-10T05:35:04;13.75;96.62
65460;DHT22;52058;49.822;6.754;2023-05-10T05:37:31;13.58;96.42
65460;DHT22;52058;49.822;6.754;2023-05-10T05:39:57;13.61;96.44
65460;DHT22;52058;49.822;6.754;2023-05-10T05:42:26;13.68;96.37
65460;DHT22;52058;49.822;6.754;2023-05-10T05:44:52;13.72;96.42
65460;DHT22;52058;49.822;6.754;2023-05-10T05:47:20;13.66;95.51
65460;DHT22;52058;49.822;6.754;2023-05-10T05:49:47;13.78;95.36
65460;DHT22;52058;49.822;6.754;2023-05-10T05:52:13;13.85;94.26
65460;DHT22;52058;49.822;6.754;2023-05-10T05:54:40;14.05;94.02
65460;DHT22;52058;49.822;6.754;2023-05-10T05:57:06;14.23;92.11
65460;DHT22;52058;49.822;6.754;2023-05-10T05:59:34;14.21;92.02
65460;DHT22;52058;49.822;6.754;2023-05-10T06:02:00;14.31;92.73
65460;DHT22;52058;49.822;6.754;2023-05-10T06:04:28;14.14;91.30
65460;DHT22;52058;49.822;6.754;2023-05-10T06:06:55;14.10;92.33
65460;DHT22;52058;49.822;6.754;2023-05-10T06:09:21;14.16;91.83
65460;DHT22;52058;49.822;6.754;2023-05-10T06:11:49;14.36;92.25
65460;DHT22;52058;49.822;6.754;2023-05-10T06:14:16;14.24;91.06
65460;DHT22;52058;49.822;6.754;2023-05-10T06:16:42;14.21;91.14
65460;DHT22;52058;49.822;6.754;2023-05-10T06:19:09;14.26;90.89
65460;DHT22;52058;49.822;6.754;2023-05-10T06:21:37;14.36;91.35
65460;DHT22;52058;49.822;6.754;2023-05-10T06:24:04;14.21;90.60
65460;DHT22;52058;49.822;6.754;2023-05-10T06:26:32;14.12;90.85
65460;DHT22;52058;49.822;6.754;2023-05-10T06:28:58;13.99;91.41
65460;DHT22;52058;49.822;6.754;2023-05-10T06:31:25;13.87;91.39
65460;DHT22;52058;49.822;6.754;2023-05-10T06:33:52;13.83;91.82
65460;DHT22;52058;49.822;6.754;2023-05-10T06:36:18;13.89;91.29
65460;DHT22;52058;49.822;6.754;2023-05-10T06:38:46;13.89;91.49
65460;DHT22;52058;49.822;6.754;2023-05-10T06:41:13;14.00;91.97
65460;DHT22;52058;49.822;6.754;2023-05-10T06:43:40;14.24;89.86
65460;DHT22;52058;49.822;6.754;2023-05-10T06:46:08;14.47;89.03
65460;DHT22;52058;49.822;6.754;2023-05-10T06:48:35;14.58;88.14
65460;DHT22;52058;49.822;6.754;2023-05-10T06:51:01;14.45;87.46
65460;DHT22;52058;49.822;6.754;2023-05-10T06:53:28;14.51;84.91
65460;DHT22;52058;49.822;6.754;2023-05-10T06:55:56;14.38;85.14
65460;DHT22;52058;49.822;6.754;2023-05-10T06:58:22;14.44;85.26
65460;DHT22;52058;49.822;6.754;2023-05-10T07:00:49;14.63;84.92
65460;DHT22;52058;49.822;6.754;2023-05-10T07:03:16;14.84;85.18
65460;DHT22;52058;49.822;6.754;2023-05-10T07:05:42;15.02;84.19
65460;DHT22;52058;49.822;6.754;2023-05-10T07:08:09;14.85;84.58
65460;DHT22;52058;49.822;6.754;2023-05-10T07:10:35;14.75;84.19
65460;DHT22;52058;49.822;6.754;2023-05-10T07:13:03;14.88;84.89
65460;DHT22;52058;49.822;6.754;2023-05-10T07:15:30;14.87;85.12
65460;DHT22;52058;49.822;6.754;2023-05-10T07:17:56;14.92;85.52
65460;DHT22;52058;49.822;6.754;2023-05-10T07:20:23;14.56;85.29
65460;DHT22;52058;49.822;6.754;2023-05-10T07:22:49;14.29;85.98
65460;DHT22;52058;49.822;6.754;2023-05-10T07:25:16;14.14;87.52
65460;DHT22;52058;49.822;6.754;2023-05-10T07:27:42;14.16;87.70
65460;DHT22;52058;49.822;6.754;2023-05-10T07:30:12;14.41;88.33
65460;DHT22;52058;49.822;6.754;2023-05-10T07:32:38;14.74;86.60
65460;DHT22;52058;49.822;6.754;2023-05-10T07:35:07;14.85;85.68
65460;DHT22;52058;49.822;6.754;2023-05-10T07:37:34;14.87;85.77
65460;DHT22;52058;49.822;6.754;2023-05-10T07:40:01;15.13;84.08
65460;DHT22;52058;49.822;6.754;2023-05-10T07:42:27;14.95;83.62
65460;DHT22;52058;49.822;6.754;2023-05-10T07:44:54;15.02;84.93
65460;DHT22;52058;49.822;6.754;2023-05-10T07:47:22;14.84;85.05
65460;DHT22;52058;49.822;6.754;2023-05-10T07:49:49;15.25;84.02
65460;DHT22;52058;49.822;6.754;2023-05-10T07:52:15;15.29;81.79
65460;DHT22;52058;49.822;6.754;2023-05-10T07:54:42;15.15;81.31
65460;DHT22;52058;49.822;6.754;2023-05-10T07:57:08;15.22;82.11
65460;DHT22;52058;49.822;6.754;2023-05-10T07:59:35;15.40;82.12
65460;DHT22;52058;49.822;6.754;2023-05-10T08:02:01;15.12;81.39
65460;DHT22;52058;49.822;6.754;2023-05-10T08:04:29;15.22;82.60
65460;DHT22;52058;49.822;6.754;2023-05-10T08:06:56;15.50;80.73
65460;DHT22;52058;49.822;6.754;2023-05-10T08:09:22;15.80;79.83
65460;DHT22;52058;49.822;6.754;2023-05-10T08:11:49;15.71;79.37
65460;DHT22;52058;49.822;6.754;2023-05-10T08:14:15;15.63;79.82
65460;DHT22;52058;49.822;6.754;2023-05-10T08:16:42;15.91;80.44
65460;DHT22;52058;49.822;6.754;2023-05-10T08:19:08;15.86;81.53
65460;DHT22;52058;49.822;6.754;2023-05-10T08:21:36;15.91;79.85
65460;DHT22;52058;49.822;6.754;2023-05-10T08:24:03;16.25;81.00
65460;DHT22;52058;49.822;6.754;2023-05-10T08:26:30;16.42;78.45
65460;DHT22;52058;49.822;6.754;2023-05-10T08:28:57;16.67;78.59
65460;DHT22;52058;49.822;6.754;2023-05-10T08:31:23;16.45;78.19
65460;DHT22;52058;49.822;6.754;2023-05-10T08:33:50;16.51;78.76
65460;DHT22;52058;49.822;6.754;2023-05-10T08:36:17;16.29;79.10
65460;DHT22;52058;49.822;6.754;2023-05-10T08:38:49;16.66;78.17
65460;DHT22;52058;49.822;6.754;2023-05-10T08:41:17;16.60;79.59
65460;DHT22;52058;49.822;6.754;2023-05-10T08:43:44;16.42;78.16
65460;DHT22;52058;49.822;6.754;2023-05-10T08:46:15;16.93;79.10
65460;DHT22;52058;49.822;6.754;2023-05-10T08:48:43;16.59;78.30
65460;DHT22;52058;49.822;6.754;2023-05-10T08:51:13;17.02;78.21
65460;DHT22;52058;49.822;6.754;2023-05-10T08:53:40;17.27;77.85
65460;DHT22;52058;49.822;6.754;2023-05-10T08:56:08;16.96;76.25
65460;DHT22;52058;49.822;6.754;2023-05-10T08:58:35;16.84;77.39
65460;DHT22;52058;49.822;6.754;2023-05-10T09:01:02;16.87;79.53
65460;DHT22;52058;49.822;6.754;2023-05-10T09:03:29;16.94;79.87
65460;DHT22;52058;49.822;6.754;2023-05-10T09:05:56;16.77;80.37
65460;DHT22;52058;49.822;6.754;2023-05-10T09:08:23;16.39;80.33
65460;DHT22;52058;49.822;6.754;2023-05-10T09:10:51;16.01;79.79
65460;DHT22;52058;49.822;6.754;2023-05-10T09:13:21;15.23;83.46
65460;DHT22;52058;49.822;6.754;2023-05-10T09:15:48;14.78;87.94
65460;DHT22;52058;49.822;6.754;2023-05-10T09:18:14;14.30;89.25
65460;DHT22;52058;49.822;6.754;2023-05-10T09:20:41;13.90;94.21
65460;DHT22;52058;49.822;6.754;2023-05-10T09:23:08;13.95;93.66
65460;DHT22;52058;49.822;6.754;2023-05-10T09:25:34;13.96;93.62
65460;DHT22;52058;49.822;6.754;2023-05-10T09:28:06;13.98;91.77
65460;DHT22;52058;49.822;6.754;2023-05-10T09:30:34;14.29;92.07
65460;DHT22;52058;49.822;6.754;2023-05-10T09:33:01;14.61;91.02
65460;DHT22;52058;49.822;6.754;2023-05-10T09:35:28;14.96;90.39
65460;DHT22;52058;49.822;6.754;2023-05-10T09:37:58;15.15;89.83
65460;DHT22;52058;49.822;6.754;2023-05-10T09:40:27;15.12;88.94
65460;DHT22;52058;49.822;6.754;2023-05-10T09:42:54;15.09;87.64
65460;DHT22;52058;49.822;6.754;2023-05-10T09:45:22;15.59;89.00
65460;DHT22;52058;49.822;6.754;2023-05-10T09:47:51;15.54;88.70
65460;DHT22;52058;49.822;6.754;2023-05-10T09:50:18;15.84;87.33
65460;DHT22;52058;49.822;6.754;2023-05-10T09:52:47;16.18;86.73
65460;DHT22;52058;49.822;6.754;2023-05-10T09:55:14;16.26;85.34
65460;DHT22;52058;49.822;6.754;2023-05-10T09:57:41;16.28;85.17
65460;DHT22;52058;49.822;6.754;2023-05-10T10:00:08;16.07;86.20
65460;DHT22;52058;49.822;6.754;2023-05-10T10:02:36;15.63;88.84
65460;DHT22;52058;49.822;6.754;2023-05-10T10:05:06;15.53;89.30
65460;DHT22;52058;49.822;6.754;2023-05-10T10:07:32;15.26;88.57
65460;DHT22;52058;49.822;6.754;2023-05-10T10:10:00;14.88;88.12
65460;DHT22;52058;49.822;6.754;2023-05-10T10:12:27;14.41;88.02
65460;DHT22;52058;49.822;6.754;2023-05-10T10:14:54;14.84;88.08
65460;DHT22;52058;49.822;6.754;2023-05-10T10:17:21;15.15;88.01
65460;DHT22;52058;49.822;6.754;2023-05-10T10:19:48;15.64;85.96
65460;DHT22;52058;49.822;6.754;2023-05-10T10:22:16;15.96;85.31
65460;DHT22;52058;49.822;6.754;2023-05-10T10:24:43;16.42;82.60
65460;DHT22;52058;49.822;6.754;2023-05-10T10:27:18;16.97;81.38
65460;DHT22;52058;49.822;6.754;2023-05-10T10:29:52;17.15;80.50
65460;DHT22;52058;49.822;6.754;2023-05-10T10:32:27;16.84;78.68
65460;DHT22;52058;49.822;6.754;2023-05-10T10:34:56;17.21;80.58
65460;DHT22;52058;49.822;6.754;2023-05-10T10:37:41;17.30;79.47
65460;DHT22;52058;49.822;6.754;2023-05-10T10:40:28;17.17;78.62
65460;DHT22;52058;49.822;6.754;2023-05-10T10:42:56;17.31;78.77
65460;DHT22;52058;49.822;6.754;2023-05-10T10:45:24;17.51;78.14
65460;DHT22;52058;49.822;6.754;2023-05-10T10:48:05;17.66;77.14
65460;DHT22;52058;49.822;6.754;2023-05-10T10:50:46;16.93;77.53
65460;DHT22;52058;49.822;6.754;2023-05-10T10:53:13;17.59;78.93
65460;DHT22;52058;49.822;6.754;2023-05-10T10:58:49;17.58;75.78
65460;DHT22;52058;49.822;6.754;2023-05-10T11:01:18;17.65;75.79
65460;DHT22;52058;49.822;6.754;2023-05-10T11:04:20;18.36;76.28
65460;DHT22;52058;49.822;6.754;2023-05-10T11:06:46;18.29;75.64
65460;DHT22;52058;49.822;6.754;2023-05-10T11:09:13;17.96;74.95
65460;DHT22;52058;49.822;6.754;2023-05-10T11:11:51;18.17;75.97
65460;DHT22;52058;49.822;6.754;2023-05-10T11:14:21;17.61;75.30
65460;DHT22;52058;49.822;6.754;2023-05-10T11:16:47;17.63;74.39
65460;DHT22;52058;49.822;6.754;2023-05-10T11:19:15;17.39;75.37
65460;DHT22;52058;49.822;6.754;2023-05-10T11:21:47;17.61;74.21
65460;DHT22;52058;49.822;6.754;2023-05-10T11:24:15;17.82;73.34
65460;DHT22;52058;49.822;6.754;2023-05-10T11:26:42;17.65;73.54
65460;DHT22;52058;49.822;6.754;2023-05-10T11:29:09;18.07;73.84
65460;DHT22;52058;49.822;6.754;2023-05-10T11:31:42;18.13;71.47
65460;DHT22;52058;49.822;6.754;2023-05-10T11:34:09;18.22;72.39
65460;DHT22;52058;49.822;6.754;2023-05-10T11:36:36;18.57;72.38
65460;DHT22;52058;49.822;6.754;2023-05-10T11:39:04;18.36;69.80
65460;DHT22;52058;49.822;6.754;2023-05-10T11:41:31;17.73;72.47
65460;DHT22;52058;49.822;6.754;2023-05-10T11:43:58;18.17;73.02
65460;DHT22;52058;49.822;6.754;2023-05-10T11:46:26;18.27;69.90
65460;DHT22;52058;49.822;6.754;2023-05-10T11:48:55;18.51;71.37
65460;DHT22;52058;49.822;6.754;2023-05-10T11:51:22;19.08;68.74
65460;DHT22;52058;49.822;6.754;2023-05-10T11:53:50;19.10;68.59
65460;DHT22;52058;49.822;6.754;2023-05-10T11:56:18;18.57;69.04
65460;DHT22;52058;49.822;6.754;2023-05-10T11:58:51;17.90;69.27
65460;DHT22;52058;49.822;6.754;2023-05-10T12:01:18;18.41;69.35
65460;DHT22;52058;49.822;6.754;2023-05-10T12:03:44;18.65;69.66
65460;DHT22;52058;49.822;6.754;2023-05-10T12:06:11;18.45;68.41
65460;DHT22;52058;49.822;6.754;2023-05-10T12:08:44;18.30;70.54
65460;DHT22;52058;49.822;6.754;2023-05-10T12:11:12;18.14;69.57
65460;DHT22;52058;49.822;6.754;2023-05-10T12:13:42;17.93;70.36
65460;DHT22;52058;49.822;6.754;2023-05-10T12:16:15;18.36;68.38
65460;DHT22;52058;49.822;6.754;2023-05-10T12:18:42;18.20;68.22
65460;DHT22;52058;49.822;6.754;2023-05-10T12:21:10;18.65;66.17
65460;DHT22;52058;49.822;6.754;2023-05-10T12:23:37;18.40;65.57
65460;DHT22;52058;49.822;6.754;2023-05-10T12:26:04;18.89;64.35
65460;DHT22;52058;49.822;6.754;2023-05-10T12:28:31;18.38;64.90
65460;DHT22;52058;49.822;6.754;2023-05-10T12:30:59;18.61;64.49
65460;DHT22;52058;49.822;6.754;2023-05-10T12:33:26;19.02;62.91
65460;DHT22;52058;49.822;6.754;2023-05-10T12:35:53;19.71;64.49
65460;DHT22;52058;49.822;6.754;2023-05-10T12:38:27;20.12;61.95
65460;DHT22;52058;49.822;6.754;2023-05-10T12:40:56;20.32;62.29
65460;DHT22;52058;49.822;6.754;2023-05-10T12:43:23;20.35;61.48
65460;DHT22;52058;49.822;6.754;2023-05-10T12:45:49;20.81;60.99
65460;DHT22;52058;49.822;6.754;2023-05-10T12:48:17;19.91;60.64
65460;DHT22;52058;49.822;6.754;2023-05-10T12:50:44;20.24;63.09
65460;DHT22;52058;49.822;6.754;2023-05-10T12:53:10;20.18;63.11
65460;DHT22;52058;49.822;6.754;2023-05-10T12:55:38;19.24;66.21
65460;DHT22;52058;49.822;6.754;2023-05-10T12:58:05;18.82;64.91
65460;DHT22;52058;49.822;6.754;2023-05-10T13:00:31;18.67;66.09
65460;DHT22;52058;49.822;6.754;2023-05-10T13:02:58;18.75;67.10
65460;DHT22;52058;49.822;6.754;2023-05-10T13:05:26;18.65;67.19
65460;DHT22;52058;49.822;6.754;2023-05-10T13:07:52;18.47;67.68
65460;DHT22;52058;49.822;6.754;2023-05-10T13:10:19;18.27;68.27
65460;DHT22;52058;49.822;6.754;2023-05-10T13:12:45;18.31;67.86
65460;DHT22;52058;49.822;6.754;2023-05-10T13:15:12;17.99;68.81
65460;DHT22;52058;49.822;6.754;2023-05-10T13:17:39;17.81;68.30
65460;DHT22;52058;49.822;6.754;2023-05-10T13:20:08;16.96;70.21
65460;DHT22;52058;49.822;6.754;2023-05-10T13:22:36;16.81;71.80
65460;DHT22;52058;49.822;6.754;2023-05-10T13:25:04;16.87;69.94
65460;DHT22;52058;49.822;6.754;2023-05-10T13:27:30;17.15;71.19
65460;DHT22;52058;49.822;6.754;2023-05-10T13:29:57;17.41;69.94
65460;DHT22;52058;49.822;6.754;2023-05-10T13:32:24;17.35;68.54
65460;DHT22;52058;49.822;6.754;2023-05-10T13:34:51;17.68;68.40
65460;DHT22;52058;49.822;6.754;2023-05-10T13:37:17;17.42;68.32
65460;DHT22;52058;49.822;6.754;2023-05-10T13:39:45;18.13;66.85
65460;DHT22;52058;49.822;6.754;2023-05-10T13:42:12;21.11;60.25
65460;DHT22;52058;49.822;6.754;2023-05-10T13:44:38;22.33;57.03
65460;DHT22;52058;49.822;6.754;2023-05-10T13:47:05;22.40;56.45
65460;DHT22;52058;49.822;6.754;2023-05-10T13:49:32;22.72;55.93
65460;DHT22;52058;49.822;6.754;2023-05-10T13:51:59;22.45;56.84
65460;DHT22;52058;49.822;6.754;2023-05-10T13:54:31;22.44;57.29
65460;DHT22;52058;49.822;6.754;2023-05-10T13:56:59;21.94;55.62
65460;DHT22;52058;49.822;6.754;2023-05-10T13:59:25;22.07;57.14
65460;DHT22;52058;49.822;6.754;2023-05-10T14:01:52;22.92;55.65
65460;DHT22;52058;49.822;6.754;2023-05-10T14:04:18;24.26;53.44
65460;DHT22;52058;49.822;6.754;2023-05-10T14:06:45;26.02;50.85
65460;DHT22;52058;49.822;6.754;2023-05-10T14:09:12;24.35;51.40
65460;DHT22;52058;49.822;6.754;2023-05-10T14:11:39;23.64;52.60
65460;DHT22;52058;49.822;6.754;2023-05-10T14:14:09;23.08;55.54
65460;DHT22;52058;49.822;6.754;2023-05-10T14:16:36;23.98;53.62
65460;DHT22;52058;49.822;6.754;2023-05-10T14:19:02;24.26;50.19
65460;DHT22;52058;49.822;6.754;2023-05-10T14:21:29;24.00;52.80
65460;DHT22;52058;49.822;6.754;2023-05-10T14:23:56;26.10;48.64
65460;DHT22;52058;49.822;6.754;2023-05-10T14:26:22;29.68;41.41
65460;DHT22;52058;49.822;6.754;2023-05-10T14:28:49;31.21;40.84
65460;DHT22;52058;49.822;6.754;2023-05-10T14:31:17;31.23;38.42
65460;DHT22;52058;49.822;6.754;2023-05-10T14:33:45;32.44;38.13
65460;DHT22;52058;49.822;6.754;2023-05-10T14:36:12;30.60;39.66
65460;DHT22;52058;49.822;6.754;2023-05-10T14:38:42;31.23;39.48
65460;DHT22;52058;49.822;6.754;2023-05-10T14:41:13;32.59;37.17
65460;DHT22;52058;49.822;6.754;2023-05-10T14:43:40;31.46;38.91
65460;DHT22;52058;49.822;6.754;2023-05-10T14:46:07;32.79;37.83
65460;DHT22;52058;49.822;6.754;2023-05-10T14:48:35;32.46;36.14
65460;DHT22;52058;49.822;6.754;2023-05-10T14:51:02;31.69;38.27
65460;DHT22;52058;49.822;6.754;2023-05-10T14:53:28;31.97;36.70
65460;DHT22;52058;49.822;6.754;2023-05-10T14:55:55;31.36;36.08
65460;DHT22;52058;49.822;6.754;2023-05-10T14:58:22;31.46;36.42
65460;DHT22;52058;49.822;6.754;2023-05-10T15:00:49;31.12;38.02
65460;DHT22;52058;49.822;6.754;2023-05-10T15:03:16;31.76;36.87
65460;DHT22;52058;49.822;6.754;2023-05-10T15:05:44;32.25;39.19
65460;DHT22;52058;49.822;6.754;2023-05-10T15:08:11;33.50;35.45
65460;DHT22;52058;49.822;6.754;2023-05-10T15:10:37;29.81;38.85
65460;DHT22;52058;49.822;6.754;2023-05-10T15:13:04;29.21;41.05
65460;DHT22;52058;49.822;6.754;2023-05-10T15:15:30;30.84;36.23
65460;DHT22;52058;49.822;6.754;2023-05-10T15:17:57;29.66;38.37
65460;DHT22;52058;49.822;6.754;2023-05-10T15:20:24;27.70;42.21
65460;DHT22;52058;49.822;6.754;2023-05-10T15:22:51;29.18;40.09
65460;DHT22;52058;49.822;6.754;2023-05-10T15:25:18;28.22;41.44
65460;DHT22;52058;49.822;6.754;2023-05-10T15:27:45;26.04;45.17
65460;DHT22;52058;49.822;6.754;2023-05-10T15:30:12;26.19;43.30
65460;DHT22;52058;49.822;6.754;2023-05-10T15:32:38;29.41;38.13
65460;DHT22;52058;49.822;6.754;2023-05-10T15:35:06;31.36;37.35
65460;DHT22;52058;49.822;6.754;2023-05-10T15:37:32;30.44;36.68